Greenwood Lake (4N1)
West Milford, NJ
Field Elevation: 791
Lat: 41°07.70N  Long: 74°20.79W
CTAF/Unicom Freq: 122.9000
   
    
Weather Advisories
2021-03-02   10:53 Z
Altimeter 30.07" Hg
Wind 330° @ 9 KT
Gusts 18 KT
Visibility 10 SM
Ceiling CLR
Temperature -8° C (18° F)
Dewpoint -18° C (0° F)
Relative Humidity 46%
Density Altitude --
Condensation Altitude 5,800 feet
Wind Chill: -15° C (5° F)
Wind and Runways
Indicated Runway = 06
Headwind = 0 kt
Crosswind = 9 kt
History
 
 
 
More Info
NOAA Forecast
 
 
About Us
Belfort Instrument
 
 
FAA Disclaimer: The data displayed is for advisory purposes only and is not to be used for flight planning or operations. For official data, please call (not available) to hear the current automated AWOS voice message.
  METAR 4N1 021053Z AUTO 33009G18KT 10 SM CLR M08/M18 A3007